AirNav   Pilot Hours Calculator
 
 460 users online  

2PN9 Sun Company-Radnor Heliport
Radnor, Pennsylvania, USA

GOING TO RADNOR?


FAA INFORMATION EFFECTIVE 07 NOVEMBER 2019

Location

FAA Identifier: 2PN9
Lat/Long: 40-02-49.3940N 075-21-27.6770W
40-02.823233N 075-21.461283W
40.0470539,-75.3576881
(estimated)
Elevation: 425 ft. / 130 m (estimated)
Variation: 11W (1985)
Time zone: UTC -5 (UTC -4 during Daylight Saving Time)
Zip code: 19087

Heliport Operations

Heliport use: Private use. Permission required prior to landing
Activation date: 07/1977
Control tower: no
ARTCC: NEW YORK CENTER
FSS: WILLIAMSPORT FLIGHT SERVICE STATION
Attendance: UNATNDD
Wind indicator: yes
Segmented circle: no

Heliport Communications

UNICOM: 123.075
WX AWOS-3 at LOM (7 nm NE): 118.925 (215-646-1068)
WX AWOS-3T at OQN (11 nm W): 121.4 ((610) 692-6190)
WX ASOS at PHL (12 nm SE): PHONE 215-492-9617
WX ASOS at PTW (15 nm NW): 119.425 (610-495-0823)
WX ASOS at PNE (16 nm E): PHONE 215-677-0146

Nearby radio navigation aids

VOR radial/distance  VOR name  Freq  Var
PTWr148/14.0POTTSTOWN VORTAC116.5009W
MXEr071/16.3MODENA VORTAC113.2009W
ARDr249/24.1YARDLEY VOR/DME108.2010W
OODr004/24.8WOODSTOWN VORTAC112.8010W
DQOr037/24.9DUPONT VORTAC114.0010W
GXUr286/35.0MC GUIRE VORTAC110.6012W
ETXr164/35.3EAST TEXAS VOR/DME110.2009W
VCNr339/35.5CEDAR LAKE VOR/DME115.2010W

 
NDB name  Hdg/Dist  Freq  Var  ID
AMBLER227/5.827512WING .. -. --.
RAINBOW356/39.136311WRNB .-. -. -...

Heliport Services

Runway Information

Helipad H1

Dimensions: 60 x 60 ft. / 18 x 18 m
Surface: asphalt, in fair condition
60' PAD WITHIN 93' LNDG AREA.
Latitude: 40-02.823233N
Longitude: 075-21.461283W
Elevation: 425.0 ft.
Traffic pattern: leftleft
Markings: none, in fair condition

Heliport Ownership and Management from official FAA records

Ownership: Privately-owned
Owner: SUN COMPANY, INC
100 MATSONFORD ROAD
RADNOR, PA 19087
Manager: RICHARD M. SALZARUIO
4875 S. ISLAND AVE
PHILADELPHIA, PA 19153
Phone 215-365-1000

Additional Remarks

FOR CD CTC PHILADELPHIA APCH AT 800-354-9884.

Instrument Procedures

There are no published instrument procedures at 2PN9.

Some nearby airports with instrument procedures:

KLOM - Wings Field Airport (7 nm NE)
N10 - Perkiomen Valley Airport (10 nm N)
KOQN - Brandywine Regional Airport (11 nm W)
KPHL - Philadelphia International Airport (12 nm SE)
KPTW - Heritage Field Airport (15 nm NW)
KPNE - Northeast Philadelphia Airport (16 nm E)
7N7 - Spitfire Aerodrome (19 nm S)
N47 - Pottstown Municipal Airport (19 nm NW)
 
Loc | Ops | Rwys | IFR | FBO | Links
Com | Nav | Svcs | Stats | Notes
Area around 2PN9 (Sun Company-Radnor Heliport)
 
Road maps at: MapQuest Bing Google
 
Aerial photo
No photo
 
Sectional chart

 
Airport distance calculator
Flying to Sun Company-Radnor Heliport? Find the distance to fly.

From to 2PN9

Sunrise and sunset
Times for 19-Nov-2019
 Local
(UTC-5)
 Zulu
(UTC)
Morning civil twilight06:2311:23
Sunrise06:5211:52
Sunset16:4121:41
Evening civil twilight17:1122:11

Current date and time
Zulu (UTC)  19-Nov-2019 08:59:06
Local (UTC-5)  19-Nov-2019 03:59:06
 
METAR
KLOM 
7nm NE 
190835Z AUTO 27003KT 10SM OVC022 04/03 A2973 RMK AO2 T00440028
KOQN 
11nm W 
190855Z AUTO 27003KT 10SM 04/02 A2973 RMK AO2
KPHL 
12nm SE 
190854Z 30003KT 7SM SCT025 OVC070 06/02 A2975 RMK AO2 SLP072 T00560022 58000 $
KPTW 
14nm NW 
190854Z AUTO 00000KT 6SM BR BKN085 OVC100 03/02 A2974 RMK AO2 SLP070 T00280022 58001
KPNE 
16nm E 
190854Z 27004KT 9SM SCT026 OVC100 06/02 A2975 RMK AO2 SLP073 T00610022 51001
TAF
KPHL 
12nm SE 
190538Z 1906/2012 00000KT P6SM BKN060 FM190800 27002KT P6SM BKN080 FM191100 26002KT P6SM SCT100 FM192100 28005KT P6SM BKN200 FM192300 31005KT P6SM BKN150
KPNE 
16nm E 
190538Z 1906/2006 00000KT P6SM FEW025 BKN035 BKN060 FM190900 VRB02KT P6SM BKN060 FM191400 VRB04KT P6SM SCT100 FM192100 30005KT P6SM BKN200
NOTAMs
Click for the latest NOTAMs
NOTAMs are issued by the DoD/FAA and will open in a separate window not controlled by AirNav.

 

 
 

Would you like to see your business listed on this page?

 If your business provides an interesting product or service to pilots, flight crews, aircraft, or users of the Sun Company-Radnor Heliport, you should consider listing it here.  To start the listing process, click on the button below
 
Add a business
 

Other Pages about Sun Company-Radnor Heliport

Update a link
 
Copyright © AirNav, LLC. All rights reserved. Privacy Policy  Contact